Time;durP1;ratioP1;P1;durP2;ratioP2;P2;SDS_P1;SDS_P2;PMS_P1;PMS_P2;Temp;Humidity;BMP_temperature;BMP_pressure;BME280_temperature;BME280_humidity;BME280_pressure;Samples;Min_cycle;Max_cycle;Signal;HPM_P1;HPM_P2
2022/12/01 00:01:13;;;;;;;27.30;20.65;;;;;;;1.96;100.00;96262.75;5068806;28;24438;-73
2022/12/01 00:03:40;;;;;;;28.80;20.23;;;;;;;2.06;100.00;96251.47;5055126;28;24430;-74
2022/12/01 00:06:10;;;;;;;28.85;21.40;;;;;;;2.17;100.00;96254.63;5064140;28;24434;-73
2022/12/01 00:08:37;;;;;;;29.88;21.75;;;;;;;2.18;100.00;96261.41;5064777;28;24453;-73
2022/12/01 00:11:04;;;;;;;31.15;22.38;;;;;;;1.96;100.00;96256.81;5062442;28;24542;-72
2022/12/01 00:13:31;;;;;;;31.02;22.63;;;;;;;1.93;100.00;96250.91;5064026;28;25029;-73
2022/12/01 00:15:58;;;;;;;33.20;23.42;;;;;;;2.12;100.00;96247.94;5062800;28;24469;-73
2022/12/01 00:18:24;;;;;;;36.05;22.90;;;;;;;2.11;100.00;96242.00;5056939;28;24439;-71
2022/12/01 00:20:54;;;;;;;33.33;23.40;;;;;;;2.08;100.00;96246.34;5068403;28;24514;-73
2022/12/01 00:23:23;;;;;;;30.08;22.75;;;;;;;1.95;100.00;96253.41;5057210;28;24530;-73
2022/12/01 00:25:49;;;;;;;34.80;23.83;;;;;;;2.09;100.00;96250.56;5063211;28;24426;-73
2022/12/01 00:28:16;;;;;;;29.52;24.10;;;;;;;1.88;100.00;96250.13;5057202;28;24458;-73
2022/12/01 00:30:42;;;;;;;30.75;23.48;;;;;;;2.03;100.00;96246.41;5068005;28;24435;-73
2022/12/01 00:33:09;;;;;;;32.00;22.77;;;;;;;2.05;100.00;96243.84;5067047;28;24430;-72
2022/12/01 00:35:35;;;;;;;36.45;23.58;;;;;;;1.80;100.00;96248.63;5068295;28;24441;-72
2022/12/01 00:38:02;;;;;;;34.58;24.13;;;;;;;1.89;100.00;96253.53;5059638;28;24431;-72
2022/12/01 00:40:30;;;;;;;28.98;22.83;;;;;;;1.89;100.00;96251.84;5062096;28;24442;-72
2022/12/01 00:42:56;;;;;;;30.90;22.77;;;;;;;1.93;100.00;96252.63;5065649;28;24458;-72
2022/12/01 00:45:23;;;;;;;35.07;24.37;;;;;;;1.90;100.00;96245.84;5062478;28;25083;-73
2022/12/01 00:47:49;;;;;;;34.13;25.37;;;;;;;1.88;100.00;96249.31;5060945;28;24441;-72
2022/12/01 00:50:16;;;;;;;33.53;23.75;;;;;;;2.02;100.00;96246.47;5063730;28;24435;-72
2022/12/01 00:52:43;;;;;;;36.13;25.17;;;;;;;1.84;100.00;96245.13;5068293;28;24438;-72
2022/12/01 00:55:09;;;;;;;32.58;24.60;;;;;;;1.81;100.00;96261.34;5067800;28;24438;-72
2022/12/01 00:57:37;;;;;;;31.35;23.63;;;;;;;1.83;100.00;96259.63;5067484;28;24446;-72
2022/12/01 01:00:05;;;;;;;37.10;24.40;;;;;;;2.04;100.00;96253.22;5063425;28;24766;-73
2022/12/01 01:02:32;;;;;;;30.58;24.30;;;;;;;1.84;100.00;96261.28;5068206;28;24485;-74
2022/12/01 01:04:58;;;;;;;34.40;24.77;;;;;;;2.14;100.00;96259.78;5062692;28;24447;-73
2022/12/01 01:07:25;;;;;;;32.47;24.55;;;;;;;1.88;100.00;96265.47;5063014;28;24441;-73
2022/12/01 01:09:51;;;;;;;35.50;24.73;;;;;;;1.82;100.00;96270.72;5061846;28;24893;-72
2022/12/01 01:12:18;;;;;;;38.88;25.42;;;;;;;2.00;100.00;96259.25;5070249;28;24450;-73
2022/12/01 01:14:46;;;;;;;36.43;26.00;;;;;;;1.85;100.00;96264.69;5069029;28;24439;-72
2022/12/01 01:17:12;;;;;;;37.63;25.55;;;;;;;1.86;100.00;96271.50;5070540;28;24964;-72
2022/12/01 01:19:39;;;;;;;36.38;25.63;;;;;;;2.01;100.00;96267.78;5062379;28;24432;-72
2022/12/01 01:22:05;;;;;;;34.92;26.38;;;;;;;1.70;100.00;96271.78;5062280;28;24453;-72
2022/12/01 01:24:32;;;;;;;38.30;25.30;;;;;;;1.76;100.00;96268.28;5063189;28;24438;-72
2022/12/01 01:26:58;;;;;;;34.72;25.88;;;;;;;1.66;100.00;96270.16;5061513;28;25015;-73
2022/12/01 01:29:25;;;;;;;34.93;24.87;;;;;;;1.77;100.00;96269.94;5070478;28;24463;-72
2022/12/01 01:31:53;;;;;;;34.42;25.17;;;;;;;1.75;100.00;96275.97;5060141;28;24434;-72
2022/12/01 01:34:19;;;;;;;31.67;24.65;;;;;;;1.75;100.00;96275.97;5064614;28;24438;-72
2022/12/01 01:36:46;;;;;;;34.00;25.83;;;;;;;1.77;100.00;96274.22;5059688;28;24434;-72
2022/12/01 01:39:12;;;;;;;40.53;25.17;;;;;;;1.84;100.00;96275.78;5071532;28;25184;-73
2022/12/01 01:41:39;;;;;;;41.13;26.13;;;;;;;1.69;100.00;96275.22;5058849;28;24435;-72
2022/12/01 01:44:38;;;;;;;36.47;25.35;;;;;;;2.02;100.00;96277.13;5064815;28;24434;-73
2022/12/01 01:47:06;;;;;;;32.72;26.95;;;;;;;1.81;100.00;96270.72;5059963;28;24443;-72
2022/12/01 01:49:33;;;;;;;33.43;25.40;;;;;;;1.79;100.00;96268.22;5069256;28;24450;-72
2022/12/01 01:51:59;;;;;;;31.13;25.98;;;;;;;1.77;100.00;96279.31;5060957;28;24790;-72
2022/12/01 01:54:31;;;;;;;35.00;25.83;;;;;;;1.70;100.00;96274.34;5067678;28;24976;-72
2022/12/01 01:57:00;;;;;;;37.05;25.30;;;;;;;1.74;100.00;96276.81;5060899;28;24461;-71
2022/12/01 01:59:29;;;;;;;37.78;26.38;;;;;;;1.76;100.00;96270.00;5070313;28;24430;-71
2022/12/01 02:02:02;;;;;;;33.63;25.43;;;;;;;1.92;100.00;96274.75;5068533;28;24535;-71
2022/12/01 02:04:30;;;;;;;34.20;25.88;;;;;;;1.79;100.00;96265.66;5066775;28;24431;-71
2022/12/01 02:06:56;;;;;;;32.97;24.42;;;;;;;1.66;100.00;96266.78;5069512;28;24438;-71
2022/12/01 02:09:23;;;;;;;34.92;25.90;;;;;;;1.84;100.00;96258.75;5070495;28;24462;-71
2022/12/01 02:12:10;;;;;;;30.83;25.50;;;;;;;1.63;100.00;96270.25;5068440;28;24479;-72
2022/12/01 02:14:55;;;;;;;31.83;24.47;;;;;;;1.61;100.00;96269.41;5068744;28;24434;-71
2022/12/01 02:17:30;;;;;;;30.87;23.90;;;;;;;1.59;100.00;96260.09;5067606;28;24422;-72
2022/12/01 02:20:23;;;;;;;32.75;24.48;;;;;;;1.51;100.00;96270.47;5068242;28;24431;-72
2022/12/01 02:23:08;;;;;;;35.05;26.08;;;;;;;1.82;100.00;96265.59;5070384;28;24447;-71
2022/12/01 02:25:46;;;;;;;30.08;24.50;;;;;;;1.62;100.00;96260.03;5067169;28;24431;-72
2022/12/01 02:28:35;;;;;;;31.25;23.42;;;;;;;1.57;100.00;96251.66;5065433;28;24435;-71
2022/12/01 02:31:12;;;;;;;33.05;24.08;;;;;;;1.55;100.00;96256.78;5062460;28;24443;-73
2022/12/01 02:33:48;;;;;;;29.95;24.42;;;;;;;1.49;100.00;96254.34;5064792;28;24441;-73
2022/12/01 02:36:19;;;;;;;32.50;24.65;;;;;;;1.29;100.00;96256.44;5069790;28;24431;-73
2022/12/01 02:38:54;;;;;;;31.00;22.85;;;;;;;1.61;100.00;96253.28;5063635;28;24998;-74
2022/12/01 02:41:28;;;;;;;30.90;24.00;;;;;;;1.32;100.00;96256.38;5068757;28;24435;-72
2022/12/01 02:44:03;;;;;;;33.00;24.33;;;;;;;1.69;100.00;96256.50;5065637;28;24431;-72
2022/12/01 02:46:36;;;;;;;32.90;23.88;;;;;;;1.49;100.00;96249.25;5067155;28;24427;-73
2022/12/01 02:49:08;;;;;;;30.87;23.87;;;;;;;1.39;100.00;96253.69;5064801;28;24478;-72
2022/12/01 02:51:37;;;;;;;32.17;24.92;;;;;;;1.38;100.00;96240.97;5060577;28;24445;-72
2022/12/01 02:54:05;;;;;;;28.38;22.67;;;;;;;1.25;100.00;96250.53;5065422;28;24517;-72
2022/12/01 02:56:32;;;;;;;27.30;22.30;;;;;;;1.50;100.00;96250.91;5059269;28;24430;-71
2022/12/01 02:58:59;;;;;;;29.15;23.63;;;;;;;1.50;100.00;96250.09;5063982;28;24434;-71
2022/12/01 03:01:51;;;;;;;29.77;23.60;;;;;;;1.53;100.00;96250.03;5067068;28;24789;-71
2022/12/01 03:04:46;;;;;;;30.47;23.17;;;;;;;1.28;100.00;96259.84;5066686;28;24618;-72
2022/12/01 03:07:28;;;;;;;37.35;23.38;;;;;;;1.29;100.00;96257.28;5066354;28;24438;-71
2022/12/01 03:10:04;;;;;;;27.57;22.37;;;;;;;1.47;100.00;96248.44;5067385;28;24457;-71
2022/12/01 03:12:41;;;;;;;27.25;22.00;;;;;;;1.42;100.00;96250.25;5067794;28;24445;-71
2022/12/01 03:15:12;;;;;;;28.42;21.95;;;;;;;1.42;100.00;96252.78;5067575;28;24457;-71
2022/12/01 03:17:45;;;;;;;27.73;22.35;;;;;;;1.37;100.00;96252.00;5061597;28;24557;-71
2022/12/01 03:20:16;;;;;;;31.65;22.17;;;;;;;1.39;100.00;96255.41;5068388;28;25023;-72
2022/12/01 03:22:48;;;;;;;29.97;23.20;;;;;;;1.46;100.00;96249.31;5059079;28;25093;-72
2022/12/01 03:25:17;;;;;;;27.15;21.13;;;;;;;1.42;100.00;96242.59;5065026;28;24461;-73
2022/12/01 03:27:47;;;;;;;27.17;21.70;;;;;;;1.41;100.00;96253.66;5056432;28;24443;-72
2022/12/01 03:30:16;;;;;;;29.27;21.33;;;;;;;1.65;100.00;96249.78;5061101;28;24454;-72
2022/12/01 03:32:47;;;;;;;25.75;20.58;;;;;;;1.41;100.00;96248.56;5065502;28;24435;-72
2022/12/01 03:35:19;;;;;;;30.63;22.23;;;;;;;1.13;100.00;96243.97;5058227;28;24435;-72
2022/12/01 03:37:51;;;;;;;26.67;21.55;;;;;;;1.06;100.00;96249.19;5054956;28;24446;-72
2022/12/01 03:40:23;;;;;;;27.45;21.38;;;;;;;1.37;100.00;96246.91;5069002;28;24429;-72
2022/12/01 03:42:55;;;;;;;30.17;22.73;;;;;;;1.60;100.00;96247.31;5059920;28;24443;-72
2022/12/01 03:45:28;;;;;;;26.30;20.52;;;;;;;1.55;100.00;96249.09;5061922;28;24484;-71
2022/12/01 03:47:56;;;;;;;26.23;21.08;;;;;;;1.44;100.00;96245.94;5061106;28;24456;-72
2022/12/01 03:50:26;;;;;;;28.98;22.20;;;;;;;1.40;100.00;96252.81;5069012;28;24447;-71
2022/12/01 03:53:05;;;;;;;26.88;21.13;;;;;;;1.39;100.00;96257.94;5066739;28;24450;-72
2022/12/01 03:55:38;;;;;;;28.67;22.25;;;;;;;1.26;100.00;96246.28;5066724;28;24438;-71
2022/12/01 03:58:10;;;;;;;26.60;21.08;;;;;;;1.21;100.00;96252.31;5064488;28;24434;-71
2022/12/01 04:00:37;;;;;;;29.25;20.67;;;;;;;1.48;100.00;96250.09;5066016;28;24864;-72
2022/12/01 04:03:06;;;;;;;26.17;20.40;;;;;;;1.62;100.00;96250.66;5064625;28;25010;-71
2022/12/01 04:05:34;;;;;;;23.85;20.38;;;;;;;1.27;100.00;96253.09;5067253;28;24423;-71
2022/12/01 04:08:01;;;;;;;30.67;22.02;;;;;;;1.13;100.00;96245.66;5060233;28;24814;-72
2022/12/01 04:10:27;;;;;;;27.83;21.52;;;;;;;1.47;100.00;96250.13;5065470;28;24489;-72
2022/12/01 04:12:58;;;;;;;27.23;20.88;;;;;;;1.45;100.00;96251.03;5057303;28;24437;-72
2022/12/01 04:15:24;;;;;;;28.98;20.23;;;;;;;1.41;100.00;96253.66;5068029;28;24445;-72
2022/12/01 04:17:51;;;;;;;27.30;20.20;;;;;;;1.45;100.00;96245.09;5062825;28;24436;-72
2022/12/01 04:20:19;;;;;;;25.40;20.30;;;;;;;1.39;100.00;96255.41;5068314;28;24431;-72
2022/12/01 04:22:46;;;;;;;27.48;22.00;;;;;;;1.37;100.00;96250.34;5066846;28;24442;-72
2022/12/01 04:25:12;;;;;;;25.65;19.00;;;;;;;1.17;100.00;96252.41;5068696;28;24509;-72
2022/12/01 04:27:39;;;;;;;27.95;21.85;;;;;;;1.24;100.00;96255.69;5061000;28;24446;-72
2022/12/01 04:30:07;;;;;;;28.15;20.30;;;;;;;1.20;100.00;96258.28;5068355;28;24812;-72
2022/12/01 04:32:38;;;;;;;27.75;19.25;;;;;;;1.26;100.00;96257.34;5062568;28;24999;-71
2022/12/01 04:35:05;;;;;;;24.90;19.50;;;;;;;1.33;100.00;96253.78;5068851;28;24433;-73
2022/12/01 04:37:33;;;;;;;34.97;20.42;;;;;;;1.16;100.00;96249.00;5062819;28;24434;-73
2022/12/01 04:39:59;;;;;;;21.83;18.40;;;;;;;1.19;100.00;96253.22;5069122;28;24435;-73
2022/12/01 04:42:26;;;;;;;22.77;19.13;;;;;;;1.24;100.00;96258.25;5062876;28;24442;-73
2022/12/01 04:44:52;;;;;;;23.95;19.27;;;;;;;1.26;100.00;96257.34;5061599;28;25356;-73
2022/12/01 04:47:19;;;;;;;27.27;20.23;;;;;;;1.20;100.00;96254.91;5064532;28;24434;-71
2022/12/01 04:49:45;;;;;;;26.05;20.08;;;;;;;1.44;100.00;96259.53;5068435;28;24454;-73
2022/12/01 04:52:12;;;;;;;26.70;20.03;;;;;;;1.21;100.00;96262.50;5064644;28;24446;-72
2022/12/01 04:54:40;;;;;;;22.52;19.08;;;;;;;1.32;100.00;96261.47;5067786;28;24442;-73
2022/12/01 04:57:06;;;;;;;25.38;20.25;;;;;;;1.05;100.00;96266.22;5065400;28;24442;-73
2022/12/01 04:59:33;;;;;;;25.90;20.17;;;;;;;1.00;100.00;96269.69;5068074;28;24426;-70
2022/12/01 05:02:01;;;;;;;27.02;19.48;;;;;;;1.04;100.00;96266.22;5067021;28;25050;-73
2022/12/01 05:04:30;;;;;;;23.27;19.20;;;;;;;1.07;100.00;96266.19;5062917;28;24439;-73
2022/12/01 05:06:56;;;;;;;24.07;19.53;;;;;;;1.23;100.00;96265.06;5061430;28;24439;-72
2022/12/01 05:09:23;;;;;;;26.05;19.88;;;;;;;1.01;100.00;96266.31;5060284;28;24458;-72
2022/12/01 05:11:50;;;;;;;25.52;19.05;;;;;;;1.26;100.00;96276.91;5065392;28;24446;-72
2022/12/01 05:14:17;;;;;;;24.08;19.50;;;;;;;1.17;100.00;96275.38;5063519;28;24429;-72
2022/12/01 05:16:43;;;;;;;23.80;19.52;;;;;;;1.11;100.00;96266.13;5062430;28;25010;-71
2022/12/01 05:21:54;;;;;;;26.83;20.38;;;;;;;1.04;100.00;96272.19;5065023;28;24446;-71
2022/12/01 05:24:22;;;;;;;25.10;19.58;;;;;;;1.45;100.00;96274.00;5063677;28;24426;-71
2022/12/01 05:26:48;;;;;;;26.45;19.38;;;;;;;1.15;100.00;96270.28;5059233;28;24446;-71
2022/12/01 05:29:16;;;;;;;25.38;19.52;;;;;;;1.13;100.00;96276.28;5061075;28;24435;-71
2022/12/01 05:31:44;;;;;;;29.35;20.63;;;;;;;1.13;100.00;96273.75;5062857;28;24454;-71
2022/12/01 05:34:11;;;;;;;29.45;21.13;;;;;;;1.09;100.00;96265.28;5065834;28;24450;-71
2022/12/01 05:36:37;;;;;;;27.27;20.73;;;;;;;1.16;100.00;96274.53;5064045;28;24987;-71
2022/12/01 05:39:05;;;;;;;26.38;20.60;;;;;;;1.15;100.00;96272.84;5057837;28;24437;-71
2022/12/01 05:41:31;;;;;;;27.33;20.75;;;;;;;1.06;100.00;96273.00;5069603;28;24435;-71
2022/12/01 05:43:58;;;;;;;24.75;20.08;;;;;;;1.10;100.00;96276.34;5069405;28;24438;-72
2022/12/01 05:46:26;;;;;;;28.88;20.92;;;;;;;1.03;100.00;96275.59;5056289;28;24437;-71
2022/12/01 05:48:52;;;;;;;29.42;21.95;;;;;;;1.26;100.00;96276.91;5058662;28;24434;-71
2022/12/01 05:51:19;;;;;;;27.25;21.38;;;;;;;1.11;100.00;96276.31;5070271;28;24477;-70
2022/12/01 05:53:46;;;;;;;27.95;21.30;;;;;;;1.28;100.00;96268.34;5070100;28;24439;-72
2022/12/01 05:56:12;;;;;;;28.02;22.13;;;;;;;1.20;100.00;96270.22;5067590;28;24431;-72
2022/12/01 05:58:39;;;;;;;30.95;22.40;;;;;;;0.94;100.00;96271.50;5070267;28;24456;-73
2022/12/01 06:01:05;;;;;;;32.67;21.67;;;;;;;0.86;100.00;96272.50;5062225;28;24424;-73
2022/12/01 06:03:33;;;;;;;31.08;22.15;;;;;;;0.93;100.00;96266.44;5065335;28;25078;-73
2022/12/01 06:06:00;;;;;;;25.25;20.48;;;;;;;0.92;100.00;96275.78;5066784;28;24999;-72
2022/12/01 06:08:27;;;;;;;30.45;21.25;;;;;;;1.00;100.00;96272.25;5069688;28;24480;-71
2022/12/01 06:10:53;;;;;;;29.87;23.00;;;;;;;0.98;100.00;96276.56;5066301;28;25045;-71
2022/12/01 06:13:20;;;;;;;25.08;21.17;;;;;;;0.93;100.00;96274.94;5062253;28;24438;-71
2022/12/01 06:15:55;;;;;;;27.25;21.08;;;;;;;0.96;100.00;96276.56;5063953;28;24473;-71
2022/12/01 06:18:22;;;;;;;27.13;21.10;;;;;;;0.99;100.00;96281.63;5068458;28;24427;-71
2022/12/01 06:20:50;;;;;;;29.90;20.80;;;;;;;1.04;100.00;96287.50;5067988;28;24955;-72
2022/12/01 06:23:16;;;;;;;29.10;21.40;;;;;;;1.05;100.00;96278.13;5068457;28;24999;-72
2022/12/01 06:25:43;;;;;;;24.42;19.35;;;;;;;1.05;100.00;96273.88;5069780;28;24821;-72
2022/12/01 06:28:10;;;;;;;29.67;20.83;;;;;;;1.01;100.00;96279.91;5070498;28;24517;-73
2022/12/01 06:30:36;;;;;;;25.40;20.88;;;;;;;0.98;100.00;96286.75;5067379;28;24469;-73
2022/12/01 06:33:03;;;;;;;28.92;20.80;;;;;;;1.01;100.00;96281.59;5064807;28;24446;-72
2022/12/01 06:35:29;;;;;;;30.33;21.58;;;;;;;0.90;100.00;96285.19;5069698;28;24435;-72
2022/12/01 06:37:57;;;;;;;31.08;22.02;;;;;;;0.90;100.00;96289.44;5065252;28;24435;-72
2022/12/01 06:40:24;;;;;;;26.25;20.80;;;;;;;0.92;100.00;96285.97;5060374;28;24438;-72
2022/12/01 06:42:50;;;;;;;24.42;20.77;;;;;;;0.86;100.00;96285.25;5066161;28;25023;-72
2022/12/01 06:45:17;;;;;;;27.83;22.02;;;;;;;0.72;100.00;96283.75;5068698;28;24435;-72
2022/12/01 06:47:44;;;;;;;31.63;20.77;;;;;;;0.83;100.00;96287.84;5068193;28;24442;-73
2022/12/01 06:50:11;;;;;;;30.00;21.27;;;;;;;0.68;100.00;96294.88;5065139;28;24473;-73
2022/12/01 06:52:38;;;;;;;26.25;20.98;;;;;;;0.77;100.00;96285.41;5065018;28;24447;-73
2022/12/01 06:55:06;;;;;;;25.23;20.42;;;;;;;0.93;100.00;96297.03;5064145;28;24442;-71
2022/12/01 06:57:33;;;;;;;23.60;20.08;;;;;;;1.02;100.00;96299.44;5064018;28;25018;-71
2022/12/01 06:59:59;;;;;;;25.95;20.02;;;;;;;1.17;100.00;96298.31;5064373;28;24434;-71
2022/12/01 07:02:26;;;;;;;27.90;21.00;;;;;;;1.19;100.00;96301.69;5064998;28;24992;-71
2022/12/01 07:04:52;;;;;;;29.23;21.10;;;;;;;1.16;100.00;96301.75;5069718;28;24438;-72
2022/12/01 07:07:19;;;;;;;32.03;21.53;;;;;;;1.20;100.00;96306.75;5058481;28;24980;-71
2022/12/01 07:09:45;;;;;;;27.00;22.35;;;;;;;1.26;100.00;96299.84;5060308;28;24446;-72
2022/12/01 07:12:13;;;;;;;27.98;21.65;;;;;;;1.18;100.00;96315.31;5066477;28;24633;-71
2022/12/01 07:14:41;;;;;;;26.65;20.85;;;;;;;1.15;100.00;96306.00;5063324;28;24454;-72
2022/12/01 07:17:08;;;;;;;30.23;20.33;;;;;;;1.15;100.00;96312.81;5067427;28;24438;-72
2022/12/01 07:19:34;;;;;;;31.08;21.45;;;;;;;1.21;100.00;96311.00;5063097;28;25067;-72
2022/12/01 07:22:01;;;;;;;29.55;20.52;;;;;;;1.17;100.00;96314.47;5058932;28;24443;-72
2022/12/01 07:24:27;;;;;;;29.00;21.92;;;;;;;1.10;100.00;96312.88;5063317;28;24434;-71
2022/12/01 07:26:54;;;;;;;26.45;21.88;;;;;;;1.25;100.00;96319.44;5067033;28;24433;-72
2022/12/01 07:29:21;;;;;;;26.52;21.67;;;;;;;1.13;100.00;96317.94;5063712;28;24441;-72
2022/12/01 07:31:48;;;;;;;29.10;22.67;;;;;;;0.91;100.00;96325.09;5066971;28;24466;-72
2022/12/01 07:34:15;;;;;;;28.60;21.95;;;;;;;1.09;100.00;96326.53;5063933;28;24430;-73
2022/12/01 07:36:41;;;;;;;27.02;22.02;;;;;;;0.80;100.00;96329.53;5058411;28;24988;-72
2022/12/01 07:39:08;;;;;;;33.40;22.52;;;;;;;0.97;100.00;96331.81;5060871;28;25046;-72
2022/12/01 07:41:35;;;;;;;30.33;23.00;;;;;;;0.84;100.00;96336.25;5063067;28;24431;-72
2022/12/01 07:44:02;;;;;;;25.70;22.03;;;;;;;0.98;100.00;96333.50;5064626;28;24438;-72
2022/12/01 07:46:30;;;;;;;28.65;23.50;;;;;;;0.97;100.00;96336.94;5060979;28;24437;-72
2022/12/01 07:48:58;;;;;;;31.08;22.58;;;;;;;0.95;100.00;96339.50;5065041;28;24438;-71
2022/12/01 07:51:26;;;;;;;29.00;22.85;;;;;;;1.06;100.00;96341.03;5060332;28;24461;-70
2022/12/01 07:53:54;;;;;;;32.60;23.65;;;;;;;0.80;100.00;96331.25;5063634;28;24466;-70
2022/12/01 07:56:22;;;;;;;28.95;22.30;;;;;;;0.77;100.00;96336.38;5060515;28;24436;-71
2022/12/01 07:58:49;;;;;;;35.07;23.13;;;;;;;0.83;100.00;96339.69;5058855;28;24442;-70
2022/12/01 08:01:18;;;;;;;29.23;23.70;;;;;;;0.85;100.00;96342.19;5063720;28;24434;-70
2022/12/01 08:03:48;;;;;;;32.22;22.35;;;;;;;0.86;100.00;96338.81;5063723;28;24473;-70
2022/12/01 08:06:14;;;;;;;28.98;22.40;;;;;;;0.85;100.00;96339.66;5062182;28;24439;-70
2022/12/01 08:08:41;;;;;;;26.20;22.90;;;;;;;1.00;100.00;96336.03;5059251;28;24468;-70
2022/12/01 08:11:11;;;;;;;28.52;22.58;;;;;;;1.08;100.00;96337.59;5065259;28;25047;-70
2022/12/01 08:13:38;;;;;;;28.25;23.15;;;;;;;0.99;100.00;96336.91;5063270;28;24437;-70
2022/12/01 08:16:06;;;;;;;25.48;21.38;;;;;;;1.06;100.00;96344.41;5059921;28;24439;-70
2022/12/01 08:18:34;;;;;;;25.92;21.60;;;;;;;1.23;100.00;96338.22;5062019;28;24435;-70
2022/12/01 08:21:02;;;;;;;29.85;23.17;;;;;;;1.31;100.00;96341.47;5065780;28;24427;-70
2022/12/01 08:23:29;;;;;;;29.15;23.58;;;;;;;1.26;100.00;96346.66;5061781;28;24434;-71
2022/12/01 08:25:56;;;;;;;29.58;22.90;;;;;;;1.28;100.00;96344.91;5067911;28;24431;-70
2022/12/01 08:28:23;;;;;;;26.33;21.98;;;;;;;1.23;100.00;96349.25;5064398;28;24570;-70
2022/12/01 08:30:49;;;;;;;31.77;22.42;;;;;;;1.20;100.00;96350.13;5067569;28;24450;-71
2022/12/01 08:33:16;;;;;;;29.52;23.20;;;;;;;1.06;100.00;96346.13;5061190;28;24441;-71
2022/12/01 08:35:42;;;;;;;32.73;24.27;;;;;;;1.10;100.00;96347.75;5061160;28;24524;-71
2022/12/01 08:38:11;;;;;;;30.88;24.15;;;;;;;1.20;100.00;96354.41;5057717;28;24459;-69
2022/12/01 08:40:37;;;;;;;30.92;23.13;;;;;;;1.12;100.00;96351.97;5067922;28;24427;-71
2022/12/01 08:43:05;;;;;;;27.52;22.23;;;;;;;1.22;100.00;96347.56;5064937;28;25391;-71
2022/12/01 08:45:32;;;;;;;31.00;24.42;;;;;;;1.06;100.00;96356.34;5068143;28;24427;-71
2022/12/01 08:47:58;;;;;;;31.48;23.33;;;;;;;0.89;100.00;96356.59;5065196;28;24435;-70
2022/12/01 08:50:25;;;;;;;32.05;22.02;;;;;;;0.99;100.00;96354.75;5067325;28;24550;-70
2022/12/01 08:52:52;;;;;;;33.38;24.20;;;;;;;1.03;100.00;96354.66;5061452;28;24469;-72
2022/12/01 08:55:20;;;;;;;29.02;22.77;;;;;;;0.92;100.00;96351.44;5060116;28;24436;-72
2022/12/01 08:57:47;;;;;;;28.02;21.83;;;;;;;0.98;100.00;96353.06;5059360;28;24994;-71
2022/12/01 09:00:14;;;;;;;29.67;22.58;;;;;;;1.07;100.00;96358.84;5064059;28;24484;-72
2022/12/01 09:02:41;;;;;;;27.55;21.80;;;;;;;1.07;100.00;96363.94;5056700;28;24443;-71
2022/12/01 09:05:08;;;;;;;28.90;22.23;;;;;;;0.96;100.00;96360.72;5063106;28;24441;-71
2022/12/01 09:07:34;;;;;;;28.42;22.35;;;;;;;0.95;100.00;96359.06;5060828;28;25005;-71
2022/12/01 09:10:01;;;;;;;29.10;21.33;;;;;;;0.98;100.00;96363.28;5060222;28;24430;-71
2022/12/01 09:12:29;;;;;;;31.50;22.70;;;;;;;0.83;100.00;96356.69;5061946;28;25003;-71
2022/12/01 09:14:56;;;;;;;53.07;22.63;;;;;;;0.89;100.00;96364.25;5059032;28;24458;-71
2022/12/01 09:17:23;;;;;;;31.02;22.00;;;;;;;0.95;100.00;96356.50;5068265;28;24436;-71
2022/12/01 09:19:49;;;;;;;26.45;21.27;;;;;;;0.94;100.00;96357.38;5063286;28;24430;-71
2022/12/01 09:22:16;;;;;;;30.10;21.80;;;;;;;0.96;100.00;96360.72;5068300;28;24447;-72
2022/12/01 09:24:42;;;;;;;27.58;22.13;;;;;;;1.01;100.00;96358.97;5065278;28;24431;-72
2022/12/01 09:27:09;;;;;;;32.08;22.67;;;;;;;1.47;100.00;96367.56;5071429;28;24435;-72
2022/12/01 09:29:37;;;;;;;31.77;23.63;;;;;;;1.12;100.00;96367.28;5065513;28;24454;-71
2022/12/01 09:32:03;;;;;;;26.23;22.10;;;;;;;1.14;100.00;96368.09;5067314;28;24462;-71
2022/12/01 09:34:30;;;;;;;30.10;22.58;;;;;;;1.04;100.00;96364.03;5069671;28;24431;-71
2022/12/01 09:36:58;;;;;;;29.42;23.35;;;;;;;0.99;100.00;96367.50;5071458;28;24470;-71
2022/12/01 09:39:24;;;;;;;27.80;22.88;;;;;;;0.89;100.00;96372.75;5068682;28;24460;-71
2022/12/01 09:41:56;;;;;;;29.15;22.98;;;;;;;1.33;100.00;96372.88;5065285;28;24438;-71
2022/12/01 09:44:34;;;;;;;32.30;23.15;;;;;;;1.00;100.00;96364.06;5068394;28;24438;-71
2022/12/01 09:47:08;;;;;;;29.73;22.88;;;;;;;0.94;100.00;96367.56;5070876;28;24450;-71
2022/12/01 09:49:44;;;;;;;31.15;22.98;;;;;;;1.07;100.00;96361.41;5070560;28;24433;-72
2022/12/01 09:52:12;;;;;;;31.55;23.13;;;;;;;0.95;100.00;96362.44;5068934;28;24515;-70
2022/12/01 09:54:39;;;;;;;26.65;22.65;;;;;;;1.00;100.00;96361.53;5070611;28;24801;-70
2022/12/01 09:57:05;;;;;;;25.30;21.80;;;;;;;0.98;100.00;96356.47;5070283;28;24441;-70
2022/12/01 09:59:39;;;;;;;30.27;22.02;;;;;;;1.02;100.00;96357.25;5069581;28;24438;-70
2022/12/01 10:02:26;;;;;;;29.40;22.05;;;;;;;1.11;100.00;96347.75;5059588;28;25031;-70
2022/12/01 10:04:56;;;;;;;27.90;22.77;;;;;;;0.99;100.00;96353.03;5064118;28;24431;-70
2022/12/01 10:07:28;;;;;;;30.33;22.92;;;;;;;0.89;100.00;96347.25;5069451;28;24437;-70
2022/12/01 10:09:57;;;;;;;32.42;23.65;;;;;;;0.71;100.00;96339.88;5064267;28;24527;-70
2022/12/01 10:12:27;;;;;;;28.75;23.40;;;;;;;0.63;100.00;96334.03;5061902;28;24546;-70
2022/12/01 10:15:00;;;;;;;28.05;21.92;;;;;;;0.58;100.00;96334.13;5066977;28;24477;-71
2022/12/01 10:17:36;;;;;;;33.47;23.88;;;;;;;0.65;100.00;96329.78;5069060;28;24796;-71
2022/12/01 10:20:06;;;;;;;25.50;20.88;;;;;;;0.80;100.00;96326.16;5064947;28;24437;-71
2022/12/01 10:23:03;;;;;;;32.30;23.23;;;;;;;0.77;100.00;96326.19;5063336;28;24449;-70
2022/12/01 10:25:37;;;;;;;27.85;21.73;;;;;;;1.04;100.00;96323.22;5062664;28;24458;-70
2022/12/01 10:28:20;;;;;;;28.15;22.23;;;;;;;1.50;100.00;96322.41;5067944;28;24442;-70
2022/12/01 10:30:50;;;;;;;29.17;22.83;;;;;;;1.29;100.00;96315.97;5066140;28;24532;-70
2022/12/01 10:33:23;;;;;;;27.90;22.80;;;;;;;1.27;100.00;96315.16;5064218;28;24435;-70
2022/12/01 10:35:50;;;;;;;28.58;24.05;;;;;;;1.55;100.00;96318.03;5067714;28;24965;-70
2022/12/01 10:38:25;;;;;;;28.55;23.20;;;;;;;1.35;100.00;96323.50;5063810;28;24434;-71
2022/12/01 10:40:52;;;;;;;26.42;21.15;;;;;;;1.21;100.00;96323.75;5069677;28;24430;-71
2022/12/01 10:43:26;;;;;;;27.45;22.92;;;;;;;1.33;100.00;96319.31;5065067;28;24529;-71
2022/12/01 10:45:54;;;;;;;31.75;23.02;;;;;;;1.35;100.00;96315.03;5067833;28;25309;-72
2022/12/01 10:48:23;;;;;;;27.67;22.48;;;;;;;1.61;100.00;96314.53;5066917;28;24547;-71
2022/12/01 10:50:51;;;;;;;26.83;22.38;;;;;;;1.53;100.00;96317.25;5067391;28;24427;-72
2022/12/01 10:53:27;;;;;;;31.85;23.45;;;;;;;1.70;100.00;96319.47;5065071;28;24524;-72
2022/12/01 10:56:02;;;;;;;27.55;22.58;;;;;;;1.53;100.00;96307.03;5062883;28;25003;-72
2022/12/01 10:58:30;;;;;;;32.65;23.73;;;;;;;1.43;100.00;96310.63;5056357;28;24534;-72
2022/12/01 11:01:00;;;;;;;25.42;20.20;;;;;;;1.31;100.00;96306.56;5069230;28;25005;-72
2022/12/01 11:03:31;;;;;;;28.02;20.67;;;;;;;1.48;100.00;96308.81;5063935;28;24971;-71
2022/12/01 11:05:59;;;;;;;29.67;22.77;;;;;;;1.41;100.00;96304.72;5069596;28;24434;-72
2022/12/01 11:08:33;;;;;;;30.80;22.20;;;;;;;1.31;100.00;96303.19;5056897;28;24427;-72
2022/12/01 11:11:01;;;;;;;33.00;23.17;;;;;;;1.62;100.00;96304.28;5062463;28;24459;-71
2022/12/01 11:13:30;;;;;;;25.85;21.50;;;;;;;1.27;100.00;96304.13;5060869;28;24453;-71
2022/12/01 11:15:58;;;;;;;26.55;22.52;;;;;;;1.36;100.00;96298.84;5059352;28;24439;-71
2022/12/01 11:18:33;;;;;;;26.83;21.70;;;;;;;1.53;100.00;96306.19;5066740;28;24438;-71
2022/12/01 11:21:10;;;;;;;29.90;21.85;;;;;;;1.51;100.00;96302.81;5060898;28;24548;-71
2022/12/01 11:23:38;;;;;;;30.40;21.60;;;;;;;1.53;100.00;96304.47;5068351;28;24430;-71
2022/12/01 11:26:13;;;;;;;29.67;22.50;;;;;;;1.44;100.00;96302.91;5064301;28;24442;-71
2022/12/01 11:28:49;;;;;;;28.55;21.33;;;;;;;1.51;100.00;96306.19;5067060;28;24441;-71